sensor_id;sensor_type;location;lat;lon;timestamp;P1;durP1;ratioP1;P2;durP2;ratioP2
67816;SDS011;54614;47.576;7.524;2023-04-24T00:00:36;1.23;;;1.10;;
67816;SDS011;54614;47.576;7.524;2023-04-24T00:03:05;1.40;;;1.30;;
67816;SDS011;54614;47.576;7.524;2023-04-24T00:05:32;1.90;;;1.23;;
67816;SDS011;54614;47.576;7.524;2023-04-24T00:07:58;3.78;;;1.30;;
67816;SDS011;54614;47.576;7.524;2023-04-24T00:10:25;2.38;;;1.23;;
67816;SDS011;54614;47.576;7.524;2023-04-24T00:12:50;1.17;;;1.10;;
67816;SDS011;54614;47.576;7.524;2023-04-24T00:15:16;1.17;;;1.08;;
67816;SDS011;54614;47.576;7.524;2023-04-24T00:17:42;1.08;;;1.00;;
67816;SDS011;54614;47.576;7.524;2023-04-24T00:20:08;2.15;;;1.23;;
67816;SDS011;54614;47.576;7.524;2023-04-24T00:22:35;1.20;;;1.10;;
67816;SDS011;54614;47.576;7.524;2023-04-24T00:25:01;1.70;;;1.20;;
67816;SDS011;54614;47.576;7.524;2023-04-24T00:27:28;1.35;;;1.08;;
67816;SDS011;54614;47.576;7.524;2023-04-24T00:29:53;1.90;;;1.27;;
67816;SDS011;54614;47.576;7.524;2023-04-24T00:32:19;1.85;;;1.13;;
67816;SDS011;54614;47.576;7.524;2023-04-24T00:34:45;5.20;;;1.10;;
67816;SDS011;54614;47.576;7.524;2023-04-24T00:37:11;3.42;;;1.10;;
67816;SDS011;54614;47.576;7.524;2023-04-24T00:39:37;1.10;;;1.00;;
67816;SDS011;54614;47.576;7.524;2023-04-24T00:42:03;1.27;;;1.17;;
67816;SDS011;54614;47.576;7.524;2023-04-24T00:44:31;2.40;;;1.10;;
67816;SDS011;54614;47.576;7.524;2023-04-24T00:47:00;1.70;;;1.20;;
67816;SDS011;54614;47.576;7.524;2023-04-24T00:49:26;1.88;;;1.10;;
67816;SDS011;54614;47.576;7.524;2023-04-24T00:51:52;1.25;;;1.10;;
67816;SDS011;54614;47.576;7.524;2023-04-24T00:54:19;2.80;;;1.20;;
67816;SDS011;54614;47.576;7.524;2023-04-24T00:56:45;1.27;;;1.10;;
67816;SDS011;54614;47.576;7.524;2023-04-24T00:59:12;3.83;;;1.30;;
67816;SDS011;54614;47.576;7.524;2023-04-24T01:01:38;2.55;;;0.90;;
67816;SDS011;54614;47.576;7.524;2023-04-24T01:04:07;1.08;;;1.08;;
67816;SDS011;54614;47.576;7.524;2023-04-24T01:06:35;3.55;;;1.10;;
67816;SDS011;54614;47.576;7.524;2023-04-24T01:09:09;1.10;;;1.00;;
67816;SDS011;54614;47.576;7.524;2023-04-24T01:11:37;1.67;;;1.20;;
67816;SDS011;54614;47.576;7.524;2023-04-24T01:14:03;1.65;;;1.20;;
67816;SDS011;54614;47.576;7.524;2023-04-24T01:16:29;0.98;;;0.98;;
67816;SDS011;54614;47.576;7.524;2023-04-24T01:18:55;1.00;;;0.90;;
67816;SDS011;54614;47.576;7.524;2023-04-24T01:21:21;1.42;;;1.00;;
67816;SDS011;54614;47.576;7.524;2023-04-24T01:23:52;1.10;;;1.00;;
67816;SDS011;54614;47.576;7.524;2023-04-24T01:26:18;1.92;;;1.00;;
67816;SDS011;54614;47.576;7.524;2023-04-24T01:28:45;2.60;;;1.00;;
67816;SDS011;54614;47.576;7.524;2023-04-24T01:31:12;1.48;;;1.10;;
67816;SDS011;54614;47.576;7.524;2023-04-24T01:33:40;1.15;;;0.90;;
67816;SDS011;54614;47.576;7.524;2023-04-24T01:36:08;0.90;;;0.90;;
67816;SDS011;54614;47.576;7.524;2023-04-24T01:38:36;2.55;;;1.10;;
67816;SDS011;54614;47.576;7.524;2023-04-24T01:41:02;2.08;;;1.10;;
67816;SDS011;54614;47.576;7.524;2023-04-24T01:43:28;1.77;;;1.00;;
67816;SDS011;54614;47.576;7.524;2023-04-24T01:45:54;0.93;;;0.93;;
67816;SDS011;54614;47.576;7.524;2023-04-24T01:48:20;2.13;;;0.90;;
67816;SDS011;54614;47.576;7.524;2023-04-24T01:50:47;2.17;;;1.00;;
67816;SDS011;54614;47.576;7.524;2023-04-24T01:53:13;1.30;;;0.90;;
67816;SDS011;54614;47.576;7.524;2023-04-24T01:55:40;1.95;;;0.90;;
67816;SDS011;54614;47.576;7.524;2023-04-24T01:58:06;1.15;;;1.00;;
67816;SDS011;54614;47.576;7.524;2023-04-24T02:00:32;1.27;;;1.08;;
67816;SDS011;54614;47.576;7.524;2023-04-24T02:02:58;1.95;;;0.93;;
67816;SDS011;54614;47.576;7.524;2023-04-24T02:05:24;2.33;;;1.10;;
67816;SDS011;54614;47.576;7.524;2023-04-24T02:07:50;0.90;;;0.90;;
67816;SDS011;54614;47.576;7.524;2023-04-24T02:10:15;0.90;;;0.90;;
67816;SDS011;54614;47.576;7.524;2023-04-24T02:12:41;1.42;;;0.90;;
67816;SDS011;54614;47.576;7.524;2023-04-24T02:15:07;1.50;;;1.08;;
67816;SDS011;54614;47.576;7.524;2023-04-24T02:17:33;1.80;;;0.90;;
67816;SDS011;54614;47.576;7.524;2023-04-24T02:19:59;0.93;;;0.85;;
67816;SDS011;54614;47.576;7.524;2023-04-24T02:22:25;1.77;;;1.10;;
67816;SDS011;54614;47.576;7.524;2023-04-24T02:24:51;1.42;;;1.13;;
67816;SDS011;54614;47.576;7.524;2023-04-24T02:27:17;1.10;;;0.90;;
67816;SDS011;54614;47.576;7.524;2023-04-24T02:29:43;3.50;;;0.90;;
67816;SDS011;54614;47.576;7.524;2023-04-24T02:32:08;1.30;;;0.93;;
67816;SDS011;54614;47.576;7.524;2023-04-24T02:34:37;0.93;;;0.90;;
67816;SDS011;54614;47.576;7.524;2023-04-24T02:37:03;0.80;;;0.80;;
67816;SDS011;54614;47.576;7.524;2023-04-24T02:39:29;2.38;;;0.77;;
67816;SDS011;54614;47.576;7.524;2023-04-24T02:41:55;1.65;;;0.82;;
67816;SDS011;54614;47.576;7.524;2023-04-24T02:44:20;1.27;;;1.00;;
67816;SDS011;54614;47.576;7.524;2023-04-24T02:46:47;1.42;;;1.00;;
67816;SDS011;54614;47.576;7.524;2023-04-24T02:49:13;3.53;;;1.00;;
67816;SDS011;54614;47.576;7.524;2023-04-24T02:51:39;1.60;;;0.85;;
67816;SDS011;54614;47.576;7.524;2023-04-24T02:54:06;2.03;;;0.93;;
67816;SDS011;54614;47.576;7.524;2023-04-24T02:56:34;0.80;;;0.80;;
67816;SDS011;54614;47.576;7.524;2023-04-24T02:59:00;0.80;;;0.80;;
67816;SDS011;54614;47.576;7.524;2023-04-24T03:01:26;0.88;;;0.88;;
67816;SDS011;54614;47.576;7.524;2023-04-24T03:03:52;1.35;;;0.90;;
67816;SDS011;54614;47.576;7.524;2023-04-24T03:06:18;4.30;;;0.90;;
67816;SDS011;54614;47.576;7.524;2023-04-24T03:08:45;2.22;;;0.90;;
67816;SDS011;54614;47.576;7.524;2023-04-24T03:11:11;1.17;;;0.85;;
67816;SDS011;54614;47.576;7.524;2023-04-24T03:13:37;0.95;;;0.85;;
67816;SDS011;54614;47.576;7.524;2023-04-24T03:16:03;3.95;;;0.80;;
67816;SDS011;54614;47.576;7.524;2023-04-24T03:18:29;0.77;;;0.77;;
67816;SDS011;54614;47.576;7.524;2023-04-24T03:20:55;0.88;;;0.80;;
67816;SDS011;54614;47.576;7.524;2023-04-24T03:23:21;2.05;;;0.80;;
67816;SDS011;54614;47.576;7.524;2023-04-24T03:25:47;0.93;;;0.93;;
67816;SDS011;54614;47.576;7.524;2023-04-24T03:28:13;1.48;;;0.70;;
67816;SDS011;54614;47.576;7.524;2023-04-24T03:30:39;0.80;;;0.80;;
67816;SDS011;54614;47.576;7.524;2023-04-24T03:33:05;1.30;;;0.90;;
67816;SDS011;54614;47.576;7.524;2023-04-24T03:35:31;0.70;;;0.70;;
67816;SDS011;54614;47.576;7.524;2023-04-24T03:37:57;1.05;;;0.93;;
67816;SDS011;54614;47.576;7.524;2023-04-24T03:40:23;0.98;;;0.70;;
67816;SDS011;54614;47.576;7.524;2023-04-24T03:42:48;2.08;;;0.90;;
67816;SDS011;54614;47.576;7.524;2023-04-24T03:45:14;0.85;;;0.80;;
67816;SDS011;54614;47.576;7.524;2023-04-24T03:47:40;0.70;;;0.70;;
67816;SDS011;54614;47.576;7.524;2023-04-24T03:50:06;0.80;;;0.80;;
67816;SDS011;54614;47.576;7.524;2023-04-24T03:52:32;0.77;;;0.77;;
67816;SDS011;54614;47.576;7.524;2023-04-24T03:54:58;1.02;;;0.80;;
67816;SDS011;54614;47.576;7.524;2023-04-24T03:57:24;1.83;;;0.80;;
67816;SDS011;54614;47.576;7.524;2023-04-24T03:59:50;1.75;;;0.73;;
67816;SDS011;54614;47.576;7.524;2023-04-24T04:02:16;1.88;;;0.68;;
67816;SDS011;54614;47.576;7.524;2023-04-24T04:04:42;3.03;;;0.80;;
67816;SDS011;54614;47.576;7.524;2023-04-24T04:07:08;1.17;;;0.80;;
67816;SDS011;54614;47.576;7.524;2023-04-24T04:09:33;1.23;;;0.90;;
67816;SDS011;54614;47.576;7.524;2023-04-24T04:11:59;0.70;;;0.70;;
67816;SDS011;54614;47.576;7.524;2023-04-24T04:14:25;2.03;;;0.63;;
67816;SDS011;54614;47.576;7.524;2023-04-24T04:16:52;5.05;;;1.00;;
67816;SDS011;54614;47.576;7.524;2023-04-24T04:19:18;1.95;;;0.90;;
67816;SDS011;54614;47.576;7.524;2023-04-24T04:21:43;1.67;;;0.77;;
67816;SDS011;54614;47.576;7.524;2023-04-24T04:24:10;2.05;;;0.93;;
67816;SDS011;54614;47.576;7.524;2023-04-24T04:26:37;1.55;;;0.75;;
67816;SDS011;54614;47.576;7.524;2023-04-24T04:29:03;2.25;;;0.80;;
67816;SDS011;54614;47.576;7.524;2023-04-24T04:31:29;0.93;;;0.88;;
67816;SDS011;54614;47.576;7.524;2023-04-24T04:33:55;1.33;;;0.80;;
67816;SDS011;54614;47.576;7.524;2023-04-24T04:36:21;0.70;;;0.70;;
67816;SDS011;54614;47.576;7.524;2023-04-24T04:38:48;0.70;;;0.70;;
67816;SDS011;54614;47.576;7.524;2023-04-24T04:41:14;1.60;;;0.70;;
67816;SDS011;54614;47.576;7.524;2023-04-24T04:43:41;0.80;;;0.80;;
67816;SDS011;54614;47.576;7.524;2023-04-24T04:46:07;1.27;;;0.80;;
67816;SDS011;54614;47.576;7.524;2023-04-24T04:48:35;1.90;;;0.85;;
67816;SDS011;54614;47.576;7.524;2023-04-24T04:51:01;1.65;;;0.80;;
67816;SDS011;54614;47.576;7.524;2023-04-24T04:53:27;2.17;;;0.80;;
67816;SDS011;54614;47.576;7.524;2023-04-24T04:55:53;0.95;;;0.75;;
67816;SDS011;54614;47.576;7.524;2023-04-24T04:58:19;1.35;;;0.88;;
67816;SDS011;54614;47.576;7.524;2023-04-24T05:00:45;1.98;;;0.80;;
67816;SDS011;54614;47.576;7.524;2023-04-24T05:03:11;1.75;;;0.90;;
67816;SDS011;54614;47.576;7.524;2023-04-24T05:05:37;1.10;;;0.90;;
67816;SDS011;54614;47.576;7.524;2023-04-24T05:08:05;1.58;;;0.80;;
67816;SDS011;54614;47.576;7.524;2023-04-24T05:10:34;1.30;;;0.77;;
67816;SDS011;54614;47.576;7.524;2023-04-24T05:13:02;2.00;;;1.00;;
67816;SDS011;54614;47.576;7.524;2023-04-24T05:15:29;0.80;;;0.80;;
67816;SDS011;54614;47.576;7.524;2023-04-24T05:17:55;0.93;;;0.80;;
67816;SDS011;54614;47.576;7.524;2023-04-24T05:20:21;1.13;;;1.02;;
67816;SDS011;54614;47.576;7.524;2023-04-24T05:22:48;0.80;;;0.80;;
67816;SDS011;54614;47.576;7.524;2023-04-24T05:25:14;2.53;;;0.73;;
67816;SDS011;54614;47.576;7.524;2023-04-24T05:27:40;0.80;;;0.80;;
67816;SDS011;54614;47.576;7.524;2023-04-24T05:30:06;4.20;;;0.90;;
67816;SDS011;54614;47.576;7.524;2023-04-24T05:32:32;3.50;;;0.90;;
67816;SDS011;54614;47.576;7.524;2023-04-24T05:34:58;2.38;;;0.98;;
67816;SDS011;54614;47.576;7.524;2023-04-24T05:37:24;9.95;;;1.02;;
67816;SDS011;54614;47.576;7.524;2023-04-24T05:39:50;1.38;;;1.00;;
67816;SDS011;54614;47.576;7.524;2023-04-24T05:42:16;2.50;;;0.80;;
67816;SDS011;54614;47.576;7.524;2023-04-24T05:44:42;1.00;;;0.90;;
67816;SDS011;54614;47.576;7.524;2023-04-24T05:47:08;4.25;;;0.90;;
67816;SDS011;54614;47.576;7.524;2023-04-24T05:49:34;1.65;;;1.00;;
67816;SDS011;54614;47.576;7.524;2023-04-24T05:52:00;2.90;;;1.10;;
67816;SDS011;54614;47.576;7.524;2023-04-24T05:54:26;1.85;;;0.90;;
67816;SDS011;54614;47.576;7.524;2023-04-24T05:56:52;2.35;;;1.00;;
67816;SDS011;54614;47.576;7.524;2023-04-24T05:59:19;4.22;;;0.90;;
67816;SDS011;54614;47.576;7.524;2023-04-24T06:01:45;2.45;;;0.90;;
67816;SDS011;54614;47.576;7.524;2023-04-24T06:04:11;1.75;;;0.85;;
67816;SDS011;54614;47.576;7.524;2023-04-24T06:06:38;1.77;;;0.95;;
67816;SDS011;54614;47.576;7.524;2023-04-24T06:09:05;3.25;;;0.90;;
67816;SDS011;54614;47.576;7.524;2023-04-24T06:11:31;1.00;;;0.98;;
67816;SDS011;54614;47.576;7.524;2023-04-24T06:13:57;1.70;;;0.90;;
67816;SDS011;54614;47.576;7.524;2023-04-24T06:16:23;1.10;;;1.00;;
67816;SDS011;54614;47.576;7.524;2023-04-24T06:18:49;1.40;;;0.90;;
67816;SDS011;54614;47.576;7.524;2023-04-24T06:21:15;1.05;;;0.80;;
67816;SDS011;54614;47.576;7.524;2023-04-24T06:23:42;0.95;;;0.80;;
67816;SDS011;54614;47.576;7.524;2023-04-24T06:26:08;2.05;;;0.80;;
67816;SDS011;54614;47.576;7.524;2023-04-24T06:28:34;2.70;;;0.90;;
67816;SDS011;54614;47.576;7.524;2023-04-24T06:31:00;3.80;;;1.00;;
67816;SDS011;54614;47.576;7.524;2023-04-24T06:33:26;0.90;;;0.90;;
67816;SDS011;54614;47.576;7.524;2023-04-24T06:35:51;2.00;;;0.88;;
67816;SDS011;54614;47.576;7.524;2023-04-24T06:38:17;3.70;;;0.90;;
67816;SDS011;54614;47.576;7.524;2023-04-24T06:40:43;3.25;;;0.93;;
67816;SDS011;54614;47.576;7.524;2023-04-24T06:43:09;2.90;;;0.93;;
67816;SDS011;54614;47.576;7.524;2023-04-24T06:45:35;3.58;;;0.95;;
67816;SDS011;54614;47.576;7.524;2023-04-24T06:48:01;5.88;;;0.93;;
67816;SDS011;54614;47.576;7.524;2023-04-24T06:50:27;3.50;;;1.30;;
67816;SDS011;54614;47.576;7.524;2023-04-24T06:52:53;3.90;;;1.00;;
67816;SDS011;54614;47.576;7.524;2023-04-24T06:55:19;2.50;;;0.98;;
67816;SDS011;54614;47.576;7.524;2023-04-24T06:57:45;4.60;;;1.00;;
67816;SDS011;54614;47.576;7.524;2023-04-24T07:00:11;4.05;;;1.00;;
67816;SDS011;54614;47.576;7.524;2023-04-24T07:02:37;1.45;;;1.00;;
67816;SDS011;54614;47.576;7.524;2023-04-24T07:05:04;5.82;;;1.00;;
67816;SDS011;54614;47.576;7.524;2023-04-24T07:07:30;3.60;;;0.90;;
67816;SDS011;54614;47.576;7.524;2023-04-24T07:09:56;1.60;;;0.98;;
67816;SDS011;54614;47.576;7.524;2023-04-24T07:12:22;4.22;;;1.00;;
67816;SDS011;54614;47.576;7.524;2023-04-24T07:14:49;2.25;;;1.10;;
67816;SDS011;54614;47.576;7.524;2023-04-24T07:17:15;2.30;;;1.00;;
67816;SDS011;54614;47.576;7.524;2023-04-24T07:19:41;3.47;;;1.00;;
67816;SDS011;54614;47.576;7.524;2023-04-24T07:22:07;4.68;;;1.20;;
67816;SDS011;54614;47.576;7.524;2023-04-24T07:24:33;2.72;;;1.00;;
67816;SDS011;54614;47.576;7.524;2023-04-24T07:26:59;5.60;;;1.02;;
67816;SDS011;54614;47.576;7.524;2023-04-24T07:29:28;3.38;;;1.08;;
67816;SDS011;54614;47.576;7.524;2023-04-24T07:31:54;1.48;;;0.90;;
67816;SDS011;54614;47.576;7.524;2023-04-24T07:34:21;4.78;;;1.20;;
67816;SDS011;54614;47.576;7.524;2023-04-24T07:36:47;3.15;;;0.90;;
67816;SDS011;54614;47.576;7.524;2023-04-24T07:39:13;2.20;;;0.90;;
67816;SDS011;54614;47.576;7.524;2023-04-24T07:41:39;4.72;;;0.90;;
67816;SDS011;54614;47.576;7.524;2023-04-24T07:44:05;3.67;;;1.10;;
67816;SDS011;54614;47.576;7.524;2023-04-24T07:46:31;2.83;;;0.95;;
67816;SDS011;54614;47.576;7.524;2023-04-24T07:48:57;1.73;;;0.90;;
67816;SDS011;54614;47.576;7.524;2023-04-24T07:51:24;3.20;;;0.98;;
67816;SDS011;54614;47.576;7.524;2023-04-24T07:53:52;1.05;;;0.80;;
67816;SDS011;54614;47.576;7.524;2023-04-24T07:56:20;6.20;;;1.00;;
67816;SDS011;54614;47.576;7.524;2023-04-24T07:58:46;1.45;;;1.20;;
67816;SDS011;54614;47.576;7.524;2023-04-24T08:01:12;6.85;;;1.30;;
67816;SDS011;54614;47.576;7.524;2023-04-24T08:03:38;2.80;;;1.30;;
67816;SDS011;54614;47.576;7.524;2023-04-24T08:06:03;5.03;;;1.25;;
67816;SDS011;54614;47.576;7.524;2023-04-24T08:08:30;11.32;;;1.75;;
67816;SDS011;54614;47.576;7.524;2023-04-24T08:10:56;10.13;;;1.45;;
67816;SDS011;54614;47.576;7.524;2023-04-24T08:13:22;9.57;;;1.83;;
67816;SDS011;54614;47.576;7.524;2023-04-24T08:15:47;14.02;;;1.98;;
67816;SDS011;54614;47.576;7.524;2023-04-24T08:18:13;11.57;;;1.45;;
67816;SDS011;54614;47.576;7.524;2023-04-24T08:20:40;14.05;;;1.45;;
67816;SDS011;54614;47.576;7.524;2023-04-24T08:23:06;12.80;;;2.00;;
67816;SDS011;54614;47.576;7.524;2023-04-24T08:25:33;12.50;;;2.10;;
67816;SDS011;54614;47.576;7.524;2023-04-24T08:28:01;9.25;;;1.60;;
67816;SDS011;54614;47.576;7.524;2023-04-24T08:30:29;11.02;;;2.15;;
67816;SDS011;54614;47.576;7.524;2023-04-24T08:32:54;4.63;;;1.50;;
67816;SDS011;54614;47.576;7.524;2023-04-24T08:35:21;4.60;;;1.52;;
67816;SDS011;54614;47.576;7.524;2023-04-24T08:37:47;6.40;;;1.60;;
67816;SDS011;54614;47.576;7.524;2023-04-24T08:40:14;8.15;;;1.20;;
67816;SDS011;54614;47.576;7.524;2023-04-24T08:42:44;3.30;;;1.33;;
67816;SDS011;54614;47.576;7.524;2023-04-24T08:45:11;11.48;;;1.50;;
67816;SDS011;54614;47.576;7.524;2023-04-24T08:47:38;5.07;;;1.40;;
67816;SDS011;54614;47.576;7.524;2023-04-24T08:50:06;3.67;;;1.58;;
67816;SDS011;54614;47.576;7.524;2023-04-24T08:52:34;2.95;;;1.38;;
67816;SDS011;54614;47.576;7.524;2023-04-24T08:55:00;3.92;;;1.20;;
67816;SDS011;54614;47.576;7.524;2023-04-24T08:57:27;3.65;;;1.20;;
67816;SDS011;54614;47.576;7.524;2023-04-24T08:59:54;3.90;;;1.50;;
67816;SDS011;54614;47.576;7.524;2023-04-24T09:02:23;3.42;;;1.25;;
67816;SDS011;54614;47.576;7.524;2023-04-24T09:04:50;5.40;;;1.73;;
67816;SDS011;54614;47.576;7.524;2023-04-24T09:07:18;6.05;;;1.50;;
67816;SDS011;54614;47.576;7.524;2023-04-24T09:09:47;4.70;;;1.20;;
67816;SDS011;54614;47.576;7.524;2023-04-24T09:12:15;2.28;;;1.33;;
67816;SDS011;54614;47.576;7.524;2023-04-24T09:14:42;5.57;;;1.45;;
67816;SDS011;54614;47.576;7.524;2023-04-24T09:17:10;4.85;;;1.30;;
67816;SDS011;54614;47.576;7.524;2023-04-24T09:19:37;2.55;;;1.23;;
67816;SDS011;54614;47.576;7.524;2023-04-24T09:22:06;8.27;;;1.45;;
67816;SDS011;54614;47.576;7.524;2023-04-24T09:24:33;10.27;;;1.40;;
67816;SDS011;54614;47.576;7.524;2023-04-24T09:27:00;5.40;;;1.42;;
67816;SDS011;54614;47.576;7.524;2023-04-24T09:29:27;6.65;;;1.20;;
67816;SDS011;54614;47.576;7.524;2023-04-24T09:31:53;5.00;;;1.33;;
67816;SDS011;54614;47.576;7.524;2023-04-24T09:34:23;5.18;;;1.23;;
67816;SDS011;54614;47.576;7.524;2023-04-24T09:36:51;3.97;;;1.38;;
67816;SDS011;54614;47.576;7.524;2023-04-24T09:39:17;1.50;;;1.00;;
67816;SDS011;54614;47.576;7.524;2023-04-24T09:41:50;2.60;;;1.20;;
67816;SDS011;54614;47.576;7.524;2023-04-24T09:44:22;4.53;;;1.40;;
67816;SDS011;54614;47.576;7.524;2023-04-24T09:46:52;1.67;;;1.10;;
67816;SDS011;54614;47.576;7.524;2023-04-24T09:49:29;2.28;;;1.10;;
67816;SDS011;54614;47.576;7.524;2023-04-24T09:52:08;2.38;;;1.10;;
67816;SDS011;54614;47.576;7.524;2023-04-24T09:54:36;2.72;;;1.10;;
67816;SDS011;54614;47.576;7.524;2023-04-24T09:57:03;1.50;;;1.20;;
67816;SDS011;54614;47.576;7.524;2023-04-24T09:59:30;1.33;;;1.10;;
67816;SDS011;54614;47.576;7.524;2023-04-24T10:01:56;3.22;;;1.30;;
67816;SDS011;54614;47.576;7.524;2023-04-24T10:04:26;3.28;;;1.40;;
67816;SDS011;54614;47.576;7.524;2023-04-24T10:06:57;5.35;;;1.35;;
67816;SDS011;54614;47.576;7.524;2023-04-24T10:09:24;1.45;;;1.13;;
67816;SDS011;54614;47.576;7.524;2023-04-24T10:11:52;3.75;;;1.67;;
67816;SDS011;54614;47.576;7.524;2023-04-24T10:14:20;3.17;;;1.70;;
67816;SDS011;54614;47.576;7.524;2023-04-24T10:16:49;2.35;;;1.73;;
67816;SDS011;54614;47.576;7.524;2023-04-24T10:19:18;5.47;;;1.95;;
67816;SDS011;54614;47.576;7.524;2023-04-24T10:21:45;5.20;;;2.10;;
67816;SDS011;54614;47.576;7.524;2023-04-24T10:24:15;5.15;;;2.28;;
67816;SDS011;54614;47.576;7.524;2023-04-24T10:26:43;8.52;;;2.72;;
67816;SDS011;54614;47.576;7.524;2023-04-24T10:29:13;8.00;;;2.60;;
67816;SDS011;54614;47.576;7.524;2023-04-24T10:31:42;7.45;;;2.90;;
67816;SDS011;54614;47.576;7.524;2023-04-24T10:34:10;5.97;;;2.85;;
67816;SDS011;54614;47.576;7.524;2023-04-24T10:36:41;4.78;;;2.83;;
67816;SDS011;54614;47.576;7.524;2023-04-24T10:39:13;8.73;;;3.15;;
67816;SDS011;54614;47.576;7.524;2023-04-24T10:41:41;23.85;;;8.07;;
67816;SDS011;54614;47.576;7.524;2023-04-24T10:44:08;32.22;;;10.55;;
67816;SDS011;54614;47.576;7.524;2023-04-24T10:46:39;53.03;;;15.20;;
67816;SDS011;54614;47.576;7.524;2023-04-24T10:49:13;66.20;;;21.85;;
67816;SDS011;54614;47.576;7.524;2023-04-24T10:51:47;68.82;;;22.73;;
67816;SDS011;54614;47.576;7.524;2023-04-24T10:54:25;76.47;;;24.00;;
67816;SDS011;54614;47.576;7.524;2023-04-24T11:00:15;89.63;;;26.50;;
67816;SDS011;54614;47.576;7.524;2023-04-24T11:02:46;69.47;;;24.45;;
67816;SDS011;54614;47.576;7.524;2023-04-24T11:05:15;90.28;;;25.40;;
67816;SDS011;54614;47.576;7.524;2023-04-24T11:10:44;76.85;;;24.77;;
67816;SDS011;54614;47.576;7.524;2023-04-24T11:13:16;74.65;;;24.10;;
67816;SDS011;54614;47.576;7.524;2023-04-24T11:27:20;70.85;;;21.20;;
67816;SDS011;54614;47.576;7.524;2023-04-24T11:37:39;51.95;;;17.50;;
67816;SDS011;54614;47.576;7.524;2023-04-24T11:40:14;49.30;;;16.33;;
67816;SDS011;54614;47.576;7.524;2023-04-24T11:42:44;46.65;;;16.02;;
67816;SDS011;54614;47.576;7.524;2023-04-24T11:45:13;47.65;;;15.98;;
67816;SDS011;54614;47.576;7.524;2023-04-24T11:47:41;44.83;;;14.82;;
67816;SDS011;54614;47.576;7.524;2023-04-24T11:50:10;46.40;;;15.00;;
67816;SDS011;54614;47.576;7.524;2023-04-24T11:52:39;41.75;;;14.60;;
67816;SDS011;54614;47.576;7.524;2023-04-24T11:55:28;43.05;;;13.65;;
67816;SDS011;54614;47.576;7.524;2023-04-24T11:57:57;41.78;;;13.27;;
67816;SDS011;54614;47.576;7.524;2023-04-24T12:00:25;40.53;;;13.93;;
67816;SDS011;54614;47.576;7.524;2023-04-24T12:03:04;40.92;;;13.90;;
67816;SDS011;54614;47.576;7.524;2023-04-24T12:05:35;33.15;;;11.27;;
67816;SDS011;54614;47.576;7.524;2023-04-24T12:08:01;40.38;;;12.30;;
67816;SDS011;54614;47.576;7.524;2023-04-24T12:10:28;35.30;;;11.15;;
67816;SDS011;54614;47.576;7.524;2023-04-24T12:12:56;34.33;;;10.70;;
67816;SDS011;54614;47.576;7.524;2023-04-24T12:15:23;40.40;;;10.75;;
67816;SDS011;54614;47.576;7.524;2023-04-24T12:17:51;34.05;;;11.07;;
67816;SDS011;54614;47.576;7.524;2023-04-24T12:20:20;37.35;;;11.07;;
67816;SDS011;54614;47.576;7.524;2023-04-24T12:22:57;40.05;;;10.10;;
67816;SDS011;54614;47.576;7.524;2023-04-24T12:25:26;39.55;;;10.27;;
67816;SDS011;54614;47.576;7.524;2023-04-24T12:30:29;33.60;;;9.70;;
67816;SDS011;54614;47.576;7.524;2023-04-24T12:33:01;40.38;;;10.35;;
67816;SDS011;54614;47.576;7.524;2023-04-24T12:35:29;27.17;;;9.23;;
67816;SDS011;54614;47.576;7.524;2023-04-24T12:38:05;25.98;;;9.13;;
67816;SDS011;54614;47.576;7.524;2023-04-24T12:40:33;31.88;;;9.40;;
67816;SDS011;54614;47.576;7.524;2023-04-24T12:42:59;27.13;;;8.75;;
67816;SDS011;54614;47.576;7.524;2023-04-24T12:45:25;30.02;;;8.93;;
67816;SDS011;54614;47.576;7.524;2023-04-24T12:47:53;26.25;;;9.48;;
67816;SDS011;54614;47.576;7.524;2023-04-24T12:50:19;28.50;;;8.88;;
67816;SDS011;54614;47.576;7.524;2023-04-24T12:52:45;30.40;;;8.85;;
67816;SDS011;54614;47.576;7.524;2023-04-24T12:55:11;33.08;;;8.05;;
67816;SDS011;54614;47.576;7.524;2023-04-24T12:57:38;25.92;;;8.50;;
67816;SDS011;54614;47.576;7.524;2023-04-24T13:00:06;25.85;;;7.90;;
67816;SDS011;54614;47.576;7.524;2023-04-24T13:02:33;32.42;;;8.32;;
67816;SDS011;54614;47.576;7.524;2023-04-24T13:05:00;33.42;;;8.13;;
67816;SDS011;54614;47.576;7.524;2023-04-24T13:07:27;16.50;;;7.30;;
67816;SDS011;54614;47.576;7.524;2023-04-24T13:09:54;27.35;;;7.65;;
67816;SDS011;54614;47.576;7.524;2023-04-24T13:12:21;21.67;;;7.80;;
67816;SDS011;54614;47.576;7.524;2023-04-24T13:14:48;24.77;;;7.82;;
67816;SDS011;54614;47.576;7.524;2023-04-24T13:17:15;19.30;;;7.10;;
67816;SDS011;54614;47.576;7.524;2023-04-24T13:19:42;22.25;;;7.82;;
67816;SDS011;54614;47.576;7.524;2023-04-24T13:22:10;20.33;;;7.43;;
67816;SDS011;54614;47.576;7.524;2023-04-24T13:24:37;21.58;;;7.35;;
67816;SDS011;54614;47.576;7.524;2023-04-24T13:27:08;22.83;;;7.20;;
67816;SDS011;54614;47.576;7.524;2023-04-24T13:29:34;23.58;;;7.07;;
67816;SDS011;54614;47.576;7.524;2023-04-24T13:32:01;16.02;;;6.85;;
67816;SDS011;54614;47.576;7.524;2023-04-24T13:34:27;18.52;;;7.07;;
67816;SDS011;54614;47.576;7.524;2023-04-24T13:36:54;23.50;;;7.57;;
67816;SDS011;54614;47.576;7.524;2023-04-24T13:39:22;18.88;;;7.05;;
67816;SDS011;54614;47.576;7.524;2023-04-24T13:41:49;20.10;;;7.50;;
67816;SDS011;54614;47.576;7.524;2023-04-24T13:44:19;20.70;;;7.20;;
67816;SDS011;54614;47.576;7.524;2023-04-24T13:46:48;20.63;;;7.05;;
67816;SDS011;54614;47.576;7.524;2023-04-24T13:49:16;15.23;;;6.75;;
67816;SDS011;54614;47.576;7.524;2023-04-24T13:51:43;23.05;;;7.07;;
67816;SDS011;54614;47.576;7.524;2023-04-24T13:54:10;20.83;;;7.15;;
67816;SDS011;54614;47.576;7.524;2023-04-24T13:56:36;22.25;;;7.28;;
67816;SDS011;54614;47.576;7.524;2023-04-24T13:59:03;15.70;;;7.15;;
67816;SDS011;54614;47.576;7.524;2023-04-24T14:01:30;19.17;;;6.80;;
67816;SDS011;54614;47.576;7.524;2023-04-24T14:03:56;16.25;;;6.22;;
67816;SDS011;54614;47.576;7.524;2023-04-24T14:06:23;15.50;;;6.47;;
67816;SDS011;54614;47.576;7.524;2023-04-24T14:08:49;18.52;;;6.47;;
67816;SDS011;54614;47.576;7.524;2023-04-24T14:11:16;17.45;;;5.97;;
67816;SDS011;54614;47.576;7.524;2023-04-24T14:13:43;16.45;;;6.72;;
67816;SDS011;54614;47.576;7.524;2023-04-24T14:16:09;15.98;;;6.63;;
67816;SDS011;54614;47.576;7.524;2023-04-24T14:18:36;17.15;;;6.43;;
67816;SDS011;54614;47.576;7.524;2023-04-24T14:21:03;14.98;;;5.80;;
67816;SDS011;54614;47.576;7.524;2023-04-24T14:23:29;15.02;;;6.18;;
67816;SDS011;54614;47.576;7.524;2023-04-24T14:25:59;18.58;;;6.32;;
67816;SDS011;54614;47.576;7.524;2023-04-24T14:28:25;16.77;;;5.88;;
67816;SDS011;54614;47.576;7.524;2023-04-24T14:30:51;14.65;;;5.93;;
67816;SDS011;54614;47.576;7.524;2023-04-24T14:33:18;16.85;;;5.90;;
67816;SDS011;54614;47.576;7.524;2023-04-24T14:35:45;23.27;;;6.32;;
67816;SDS011;54614;47.576;7.524;2023-04-24T14:38:12;12.65;;;5.68;;
67816;SDS011;54614;47.576;7.524;2023-04-24T14:40:40;12.88;;;5.38;;
67816;SDS011;54614;47.576;7.524;2023-04-24T14:43:06;13.88;;;5.90;;
67816;SDS011;54614;47.576;7.524;2023-04-24T14:45:32;14.48;;;5.82;;
67816;SDS011;54614;47.576;7.524;2023-04-24T14:47:59;15.95;;;5.97;;
67816;SDS011;54614;47.576;7.524;2023-04-24T14:50:25;16.23;;;6.05;;
67816;SDS011;54614;47.576;7.524;2023-04-24T14:52:55;14.57;;;5.55;;
67816;SDS011;54614;47.576;7.524;2023-04-24T14:55:22;11.90;;;4.95;;
67816;SDS011;54614;47.576;7.524;2023-04-24T14:57:49;12.57;;;5.00;;
67816;SDS011;54614;47.576;7.524;2023-04-24T15:00:16;12.98;;;5.32;;
67816;SDS011;54614;47.576;7.524;2023-04-24T15:02:42;12.75;;;4.95;;
67816;SDS011;54614;47.576;7.524;2023-04-24T15:05:09;11.55;;;4.55;;
67816;SDS011;54614;47.576;7.524;2023-04-24T15:07:36;12.57;;;5.07;;
67816;SDS011;54614;47.576;7.524;2023-04-24T15:10:03;10.75;;;4.18;;